NY92 weather

Owasco Airport
Moravia, New York, United States

Public forecast

Using degrees Fahrenheit for public forecast. Weather courtesy of forecast.io.

METAR (pilot weather report)

Closest report is Cortland County Chase Field, 14.7 nm (27.3 km) SE. Retrieved 2019/07/22 08:35 UTC (13 minutes ago):

KN03 220835Z AUTO 00000KT 10SM CLR 16/15 A2991 RMK AO2

TAF (pilot weather forecast)

Closest forecast is Ithaca Tompkins Regional Airport, 14.7 nm (27.3 km) S. Retrieved 2019/07/22 06:22 UTC (2 hours ago):

TAF KITH 220520Z 2206/2306 00000KT P6SM SCT100 FM221200 03003KT P6SM -SHRA OVC035 FM221500 32003KT 5SM -SHRA OVC025 FM221700 VRB03KT 5SM -SHRA OVC009 FM230100 35003KT P6SM BKN009